Time;durP1;ratioP1;P1;durP2;ratioP2;P2;SDS_P1;SDS_P2;PMS_P1;PMS_P2;Temp;Humidity;BMP_temperature;BMP_pressure;BME280_temperature;BME280_humidity;BME280_pressure;Samples;Min_cycle;Max_cycle;Signal;HPM_P1;HPM_P2
2023/09/14 00:01:54;;;;;;;2.78;2.05;;;13.10;99.90;;;;;;5134055;27;20940;-79
2023/09/14 00:04:21;;;;;;;4.35;2.25;;;13.10;99.90;;;;;;5133342;27;20046;-79
2023/09/14 00:06:48;;;;;;;3.55;2.28;;;13.00;99.90;;;;;;5134510;27;20035;-79
2023/09/14 00:09:14;;;;;;;3.08;2.00;;;13.00;99.90;;;;;;5121353;27;20065;-79
2023/09/14 00:11:40;;;;;;;3.35;2.08;;;13.00;99.90;;;;;;5136576;27;20054;-79
2023/09/14 00:14:05;;;;;;;6.68;1.95;;;13.00;99.90;;;;;;5141360;27;20054;-79
2023/09/14 00:16:31;;;;;;;5.90;2.28;;;13.00;99.90;;;;;;5115660;27;20043;-79
2023/09/14 00:18:57;;;;;;;3.58;2.30;;;13.00;99.90;;;;;;5126066;27;20459;-79
2023/09/14 00:21:22;;;;;;;5.05;2.25;;;13.00;99.90;;;;;;5132402;27;20043;-79
2023/09/14 00:23:48;;;;;;;3.35;2.15;;;13.00;99.90;;;;;;5129840;27;20055;-79
2023/09/14 00:26:15;;;;;;;2.97;2.35;;;13.10;99.90;;;;;;5137353;27;20725;-79
2023/09/14 00:28:41;;;;;;;3.92;2.28;;;13.10;99.90;;;;;;5135630;27;20161;-79
2023/09/14 00:31:06;;;;;;;5.07;2.20;;;13.10;99.90;;;;;;5142581;27;20102;-79
2023/09/14 00:33:32;;;;;;;2.70;1.75;;;13.10;99.90;;;;;;5142075;27;20882;-79
2023/09/14 00:35:58;;;;;;;3.28;1.77;;;13.00;99.90;;;;;;5120881;27;20110;-79
2023/09/14 00:38:25;;;;;;;3.42;2.03;;;13.00;99.90;;;;;;5141459;27;20047;-79
2023/09/14 00:40:51;;;;;;;5.43;2.08;;;13.00;99.90;;;;;;5134048;27;20047;-79
2023/09/14 00:43:17;;;;;;;4.03;2.10;;;13.00;99.90;;;;;;5112762;27;20134;-79
2023/09/14 00:45:44;;;;;;;3.65;2.10;;;12.90;99.90;;;;;;5140603;27;20034;-79
2023/09/14 00:48:10;;;;;;;4.80;2.50;;;13.00;99.90;;;;;;5139910;27;20043;-79
2023/09/14 00:50:36;;;;;;;3.38;1.90;;;13.00;99.90;;;;;;5125832;27;20058;-79
2023/09/14 00:53:11;;;;;;;3.90;1.90;;;13.00;99.90;;;;;;5138415;27;20054;-79
2023/09/14 00:55:38;;;;;;;3.33;2.25;;;13.00;99.90;;;;;;5137650;27;20047;-79
2023/09/14 00:58:04;;;;;;;5.82;2.28;;;13.00;99.90;;;;;;5139050;27;20057;-79
2023/09/14 01:00:31;;;;;;;2.97;2.35;;;13.00;99.90;;;;;;5126489;27;20062;-79
2023/09/14 01:02:58;;;;;;;4.50;2.45;;;13.00;99.90;;;;;;5133650;27;20043;-79
2023/09/14 01:05:28;;;;;;;2.63;1.98;;;13.00;99.90;;;;;;5141403;27;20179;-79
2023/09/14 01:07:54;;;;;;;4.00;1.88;;;13.00;99.90;;;;;;5126571;27;20046;-79
2023/09/14 01:10:20;;;;;;;4.10;2.30;;;13.00;99.90;;;;;;5140421;27;20123;-79
2023/09/14 01:12:47;;;;;;;2.67;2.03;;;13.00;99.90;;;;;;5122483;27;20076;-79
2023/09/14 01:15:16;;;;;;;4.15;2.00;;;13.00;99.90;;;;;;5133584;27;20049;-80
2023/09/14 01:18:05;;;;;;;2.55;1.75;;;13.00;99.90;;;;;;5139121;27;20104;-79
2023/09/14 01:21:04;;;;;;;3.58;2.08;;;13.10;99.90;;;;;;5134107;27;20589;-79
2023/09/14 01:23:41;;;;;;;4.05;2.00;;;13.10;99.90;;;;;;5139051;27;20050;-79
2023/09/14 01:26:08;;;;;;;3.17;1.65;;;13.10;99.90;;;;;;5135319;27;20061;-79
2023/09/14 01:28:34;;;;;;;2.75;1.80;;;13.10;99.90;;;;;;5122270;27;20047;-79
2023/09/14 01:30:59;;;;;;;5.57;2.47;;;13.10;99.90;;;;;;5145436;27;20057;-79
2023/09/14 01:33:27;;;;;;;3.70;2.13;;;13.10;99.90;;;;;;5145517;27;20126;-79
2023/09/14 01:36:19;;;;;;;3.55;2.10;;;13.10;99.90;;;;;;5125612;27;20376;-79
2023/09/14 01:38:46;;;;;;;3.70;2.22;;;13.10;99.90;;;;;;5145367;27;20046;-79
2023/09/14 01:41:13;;;;;;;6.90;2.80;;;13.10;99.90;;;;;;5126586;27;20074;-79
2023/09/14 01:43:42;;;;;;;2.15;1.67;;;13.10;99.90;;;;;;5146019;27;20054;-79
2023/09/14 01:46:08;;;;;;;4.00;1.90;;;13.10;99.90;;;;;;5141944;27;20046;-79
2023/09/14 01:48:34;;;;;;;4.20;1.75;;;13.10;99.90;;;;;;5141903;27;20118;-79
2023/09/14 01:51:00;;;;;;;3.83;2.40;;;13.10;99.90;;;;;;5134280;27;20133;-79
2023/09/14 01:53:25;;;;;;;3.33;2.08;;;13.10;99.90;;;;;;5131302;27;20567;-79
2023/09/14 01:55:51;;;;;;;3.72;1.48;;;13.00;99.90;;;;;;5126308;27;20523;-79
2023/09/14 01:58:17;;;;;;;5.15;1.88;;;13.00;99.90;;;;;;5129580;27;20078;-79
2023/09/14 02:00:43;;;;;;;2.53;2.13;;;13.00;99.90;;;;;;5135203;27;20514;-79
2023/09/14 02:03:08;;;;;;;5.43;1.83;;;13.00;99.90;;;;;;5107419;27;20628;-79
2023/09/14 02:05:35;;;;;;;2.17;1.73;;;13.00;99.90;;;;;;5134995;27;20055;-79
2023/09/14 02:08:00;;;;;;;2.17;1.63;;;12.90;99.90;;;;;;5137040;27;20107;-79
2023/09/14 02:10:26;;;;;;;2.45;1.65;;;12.90;99.90;;;;;;5132582;27;20090;-79
2023/09/14 02:12:52;;;;;;;2.90;2.00;;;12.90;99.90;;;;;;5132222;27;20054;-79
2023/09/14 02:15:17;;;;;;;4.90;1.90;;;12.90;99.90;;;;;;5144972;27;20051;-79
2023/09/14 02:17:43;;;;;;;2.53;1.83;;;12.80;99.90;;;;;;5111766;27;20043;-79
2023/09/14 02:20:10;;;;;;;2.30;1.73;;;12.80;99.90;;;;;;5140244;27;20047;-79
2023/09/14 02:22:35;;;;;;;3.85;2.00;;;12.80;99.90;;;;;;5141516;27;20774;-79
2023/09/14 02:25:02;;;;;;;1.90;1.70;;;12.80;99.90;;;;;;5124215;27;20078;-79
2023/09/14 02:27:27;;;;;;;3.22;2.30;;;12.80;99.90;;;;;;5112476;27;20062;-79
2023/09/14 02:29:54;;;;;;;3.80;1.92;;;12.80;99.90;;;;;;5124734;27;20055;-79
2023/09/14 02:32:20;;;;;;;2.55;1.83;;;12.80;99.90;;;;;;5117201;27;20055;-79
2023/09/14 02:34:47;;;;;;;6.05;1.95;;;12.80;99.90;;;;;;5119546;27;20050;-79
2023/09/14 02:37:14;;;;;;;3.42;1.90;;;12.70;99.90;;;;;;5119231;27;20832;-79
2023/09/14 02:39:39;;;;;;;2.38;2.13;;;12.70;99.90;;;;;;5130452;27;20170;-79
2023/09/14 02:42:05;;;;;;;4.78;2.13;;;12.70;99.90;;;;;;5136689;27;20766;-79
2023/09/14 02:44:31;;;;;;;3.72;1.73;;;12.70;99.90;;;;;;5138643;27;20054;-79
2023/09/14 02:46:57;;;;;;;2.65;1.98;;;12.50;99.90;;;;;;5143379;27;20046;-79
2023/09/14 02:49:22;;;;;;;4.20;1.98;;;12.60;99.90;;;;;;5136590;27;20448;-79
2023/09/14 02:51:48;;;;;;;4.40;2.22;;;12.60;99.90;;;;;;5132744;27;20051;-79
2023/09/14 02:54:14;;;;;;;2.85;1.80;;;12.50;99.90;;;;;;5136577;27;20045;-79
2023/09/14 02:56:41;;;;;;;4.00;2.13;;;12.50;99.90;;;;;;5139402;27;20501;-79
2023/09/14 02:59:07;;;;;;;4.43;2.00;;;12.40;99.90;;;;;;5142455;27;20054;-79
2023/09/14 03:01:33;;;;;;;4.30;2.38;;;12.40;99.90;;;;;;5141958;27;20046;-79
2023/09/14 03:03:59;;;;;;;3.47;2.20;;;12.30;99.90;;;;;;5140810;27;20038;-79
2023/09/14 03:06:26;;;;;;;3.20;2.10;;;12.30;99.90;;;;;;5138971;27;20646;-79
2023/09/14 03:08:52;;;;;;;2.45;2.10;;;12.20;99.90;;;;;;5135709;27;20675;-79
2023/09/14 03:11:18;;;;;;;2.97;1.98;;;12.10;99.90;;;;;;5132993;27;20380;-79
2023/09/14 03:13:43;;;;;;;2.92;2.30;;;12.10;99.90;;;;;;5127004;27;20078;-79
2023/09/14 03:16:09;;;;;;;3.20;2.20;;;12.10;99.90;;;;;;5140113;27;20042;-79
2023/09/14 03:18:35;;;;;;;3.15;1.98;;;12.00;99.90;;;;;;5138721;27;20046;-79
2023/09/14 03:21:01;;;;;;;3.80;2.03;;;12.00;99.90;;;;;;5117305;27;20080;-79
2023/09/14 03:23:26;;;;;;;4.75;2.28;;;12.00;99.90;;;;;;5134940;27;20046;-79
2023/09/14 03:25:52;;;;;;;3.92;1.90;;;11.90;99.90;;;;;;5125576;27;20150;-79
2023/09/14 03:28:18;;;;;;;2.90;1.90;;;11.90;99.90;;;;;;5140226;27;20517;-79
2023/09/14 03:30:44;;;;;;;2.63;2.00;;;11.80;99.90;;;;;;5132018;27;20115;-79
2023/09/14 03:33:11;;;;;;;4.35;1.70;;;11.80;99.90;;;;;;5139096;27;20057;-79
2023/09/14 03:35:37;;;;;;;4.68;2.05;;;11.70;99.90;;;;;;5121099;27;20043;-79
2023/09/14 03:38:03;;;;;;;2.50;2.00;;;11.60;99.90;;;;;;5135208;27;20300;-79
2023/09/14 03:40:29;;;;;;;1.98;1.77;;;11.60;99.90;;;;;;5142638;27;20579;-79
2023/09/14 03:42:54;;;;;;;4.30;1.85;;;11.50;99.90;;;;;;5127800;27;20062;-79
2023/09/14 03:45:20;;;;;;;3.53;2.00;;;11.40;99.90;;;;;;5133895;27;20069;-79
2023/09/14 03:47:49;;;;;;;2.97;1.88;;;11.40;99.90;;;;;;5118686;27;20486;-79
2023/09/14 03:50:15;;;;;;;3.33;2.03;;;11.30;99.90;;;;;;5143116;27;20128;-79
2023/09/14 03:52:40;;;;;;;4.57;2.03;;;11.30;99.90;;;;;;5123582;27;20051;-79
2023/09/14 03:55:07;;;;;;;2.90;2.05;;;11.30;99.90;;;;;;5135805;27;20647;-78
2023/09/14 03:57:32;;;;;;;4.00;2.33;;;11.20;99.90;;;;;;5138518;27;20055;-79
2023/09/14 03:59:58;;;;;;;2.85;2.50;;;11.20;99.90;;;;;;5112863;27;20445;-79
2023/09/14 04:02:24;;;;;;;5.95;2.80;;;11.20;99.90;;;;;;5129732;27;20053;-79
2023/09/14 04:04:50;;;;;;;6.10;2.60;;;11.20;99.90;;;;;;5135344;27;20099;-79
2023/09/14 04:07:16;;;;;;;3.85;2.38;;;11.20;99.90;;;;;;5128936;27;20085;-79
2023/09/14 04:09:42;;;;;;;4.85;2.70;;;10.80;99.90;;;;;;5131312;27;20043;-79
2023/09/14 04:12:08;;;;;;;3.28;2.05;;;11.10;99.90;;;;;;5136355;27;20039;-79
2023/09/14 04:14:34;;;;;;;4.80;2.53;;;11.00;99.90;;;;;;5122954;27;20121;-79
2023/09/14 04:17:01;;;;;;;3.35;2.13;;;11.00;99.90;;;;;;5131738;27;20081;-79
2023/09/14 04:19:28;;;;;;;3.15;2.08;;;11.00;99.90;;;;;;5139766;27;20175;-79
2023/09/14 04:21:54;;;;;;;5.30;2.50;;;11.00;99.90;;;;;;5124089;27;20084;-78
2023/09/14 04:24:20;;;;;;;2.97;2.40;;;10.90;99.90;;;;;;5126860;27;20718;-78
2023/09/14 04:26:46;;;;;;;3.20;2.20;;;10.90;99.90;;;;;;5139823;27;20054;-79
2023/09/14 04:29:12;;;;;;;4.40;2.17;;;10.90;99.90;;;;;;5131324;27;20686;-79
2023/09/14 04:31:40;;;;;;;2.88;2.28;;;10.90;99.90;;;;;;5133950;27;20129;-79
2023/09/14 04:34:06;;;;;;;2.97;2.30;;;10.90;99.90;;;;;;5107991;27;20062;-79
2023/09/14 04:36:33;;;;;;;2.83;2.05;;;10.90;99.90;;;;;;5137588;27;20046;-79
2023/09/14 04:39:02;;;;;;;2.90;1.70;;;10.80;99.90;;;;;;5136711;27;20104;-79
2023/09/14 04:41:27;;;;;;;3.60;2.25;;;10.90;99.90;;;;;;5120280;27;20050;-79
2023/09/14 04:43:53;;;;;;;4.00;2.10;;;10.80;99.90;;;;;;5118881;27;20131;-79
2023/09/14 04:46:19;;;;;;;3.40;2.03;;;10.80;99.90;;;;;;5139154;27;20038;-79
2023/09/14 04:48:45;;;;;;;2.67;2.10;;;10.80;99.90;;;;;;5140323;27;20046;-79
2023/09/14 04:51:10;;;;;;;3.40;2.25;;;10.80;99.90;;;;;;5136092;27;20108;-79
2023/09/14 04:53:36;;;;;;;2.95;2.25;;;10.80;99.90;;;;;;5130177;27;20072;-79
2023/09/14 04:56:02;;;;;;;4.65;2.53;;;10.80;99.90;;;;;;5137566;27;20502;-79
2023/09/14 04:58:27;;;;;;;3.60;2.17;;;10.70;99.90;;;;;;5112325;28;20050;-79
2023/09/14 05:00:53;;;;;;;2.47;2.17;;;10.70;99.90;;;;;;5112414;27;20047;-79
2023/09/14 05:03:19;;;;;;;5.25;2.95;;;10.70;99.90;;;;;;5131710;27;20074;-79
2023/09/14 05:05:53;;;;;;;3.33;2.13;;;10.70;99.90;;;;;;5132004;27;20042;-78
2023/09/14 05:08:18;;;;;;;3.35;2.20;;;10.60;99.90;;;;;;5123365;27;20047;-79
2023/09/14 05:10:44;;;;;;;4.03;1.80;;;10.60;99.90;;;;;;5117755;27;20115;-79
2023/09/14 05:13:10;;;;;;;2.53;2.00;;;10.60;99.90;;;;;;5123573;27;20058;-79
2023/09/14 05:15:36;;;;;;;4.72;2.00;;;10.50;99.90;;;;;;5125621;27;20430;-79
2023/09/14 05:18:02;;;;;;;6.93;2.50;;;10.60;99.90;;;;;;5123408;27;20062;-79
2023/09/14 05:20:28;;;;;;;2.95;2.15;;;10.60;99.90;;;;;;5134725;27;20581;-79
2023/09/14 05:22:54;;;;;;;4.30;2.80;;;10.50;99.90;;;;;;5135463;27;20043;-78
2023/09/14 05:25:20;;;;;;;2.72;2.35;;;10.50;99.90;;;;;;5137416;27;20691;-78
2023/09/14 05:27:46;;;;;;;2.30;2.03;;;10.50;99.90;;;;;;5132048;27;20119;-78
2023/09/14 05:30:12;;;;;;;4.15;2.15;;;10.50;99.90;;;;;;5134290;27;20050;-79
2023/09/14 05:32:39;;;;;;;3.72;2.47;;;10.50;99.90;;;;;;5110407;27;20129;-79
2023/09/14 05:35:09;;;;;;;3.50;2.80;;;10.50;99.90;;;;;;5129030;27;20047;-79
2023/09/14 05:37:35;;;;;;;5.25;2.38;;;10.50;99.90;;;;;;5107716;28;20057;-78
2023/09/14 05:40:03;;;;;;;4.35;2.70;;;10.50;99.90;;;;;;5130982;27;20043;-79
2023/09/14 05:42:29;;;;;;;3.13;2.53;;;10.60;99.90;;;;;;5103183;28;20054;-79
2023/09/14 05:44:55;;;;;;;6.68;2.35;;;10.60;99.90;;;;;;5126294;27;20043;-78
2023/09/14 05:47:20;;;;;;;2.65;2.08;;;10.60;99.90;;;;;;5122151;27;20082;-79
2023/09/14 05:49:47;;;;;;;4.07;2.67;;;10.60;99.90;;;;;;5132910;27;20106;-79
2023/09/14 05:52:13;;;;;;;4.07;2.20;;;10.30;99.90;;;;;;5124364;27;20055;-79
2023/09/14 05:54:39;;;;;;;4.88;2.55;;;10.70;99.90;;;;;;5111560;28;20054;-79
2023/09/14 05:57:05;;;;;;;3.65;2.47;;;9.70;99.90;;;;;;5099650;28;20491;-79
2023/09/14 05:59:31;;;;;;;3.30;3.00;;;10.80;99.90;;;;;;5136619;27;20038;-79
2023/09/14 06:01:56;;;;;;;5.75;2.33;;;10.90;99.90;;;;;;5135695;27;20122;-79
2023/09/14 06:04:22;;;;;;;3.58;2.03;;;11.00;99.90;;;;;;5101896;28;20103;-78
2023/09/14 06:06:48;;;;;;;3.67;1.88;;;11.00;99.90;;;;;;5129541;27;20912;-78
2023/09/14 06:09:14;;;;;;;4.75;2.72;;;11.20;99.90;;;;;;5124251;27;20065;-79
2023/09/14 06:11:41;;;;;;;3.17;2.13;;;11.20;99.90;;;;;;5139701;27;20088;-79
2023/09/14 06:14:07;;;;;;;3.55;2.72;;;11.20;99.90;;;;;;5105545;27;20777;-79
2023/09/14 06:16:33;;;;;;;3.15;2.67;;;11.20;99.90;;;;;;5138759;27;20078;-79
2023/09/14 06:18:58;;;;;;;4.50;3.08;;;11.30;99.90;;;;;;5138694;27;20051;-79
2023/09/14 06:21:24;;;;;;;4.15;2.70;;;11.30;99.90;;;;;;5125354;27;20487;-79
2023/09/14 06:23:50;;;;;;;3.47;2.20;;;11.40;99.90;;;;;;5137946;27;20130;-79
2023/09/14 06:26:16;;;;;;;3.88;2.45;;;11.50;99.90;;;;;;5135865;27;20039;-78
2023/09/14 06:28:41;;;;;;;4.50;2.97;;;11.60;99.90;;;;;;5134055;27;20537;-79
2023/09/14 06:31:07;;;;;;;6.13;2.50;;;11.60;99.90;;;;;;5127352;27;20093;-79
2023/09/14 06:33:33;;;;;;;4.15;2.20;;;11.70;99.90;;;;;;5138309;27;20039;-79
2023/09/14 06:35:58;;;;;;;2.00;1.73;;;11.80;99.90;;;;;;5128060;27;20123;-79
2023/09/14 06:38:24;;;;;;;4.07;2.58;;;11.90;99.90;;;;;;5105154;27;20042;-79
2023/09/14 06:40:50;;;;;;;3.03;2.28;;;12.00;99.90;;;;;;5142074;27;20494;-79
2023/09/14 06:43:16;;;;;;;2.45;1.75;;;12.10;99.90;;;;;;5121635;27;20058;-78
2023/09/14 06:45:42;;;;;;;4.72;1.90;;;12.20;99.90;;;;;;5142023;27;20817;-79
2023/09/14 06:48:08;;;;;;;4.28;2.30;;;12.30;99.90;;;;;;5141820;27;20053;-79
2023/09/14 06:50:33;;;;;;;2.83;2.15;;;12.30;99.90;;;;;;5122987;27;20057;-80
2023/09/14 06:52:59;;;;;;;3.33;1.80;;;12.40;99.90;;;;;;5136237;27;20177;-79
2023/09/14 06:55:25;;;;;;;3.58;1.73;;;12.50;99.90;;;;;;5135908;27;20042;-79
2023/09/14 06:57:50;;;;;;;2.67;2.20;;;12.60;99.90;;;;;;5138032;27;20847;-79
2023/09/14 07:00:20;;;;;;;3.33;2.15;;;12.70;99.90;;;;;;5121505;27;20535;-79
2023/09/14 07:02:52;;;;;;;2.55;2.08;;;12.80;99.90;;;;;;5139383;27;20121;-79
2023/09/14 07:05:18;;;;;;;3.20;2.20;;;12.80;99.90;;;;;;5143296;27;20867;-78
2023/09/14 07:07:43;;;;;;;5.63;1.98;;;12.90;99.90;;;;;;5122570;27;20117;-78
2023/09/14 07:10:10;;;;;;;4.95;2.13;;;13.00;99.90;;;;;;5141051;27;20051;-77
2023/09/14 07:12:36;;;;;;;2.42;1.83;;;13.10;99.90;;;;;;5128513;27;20101;-79
2023/09/14 07:15:02;;;;;;;1.88;1.60;;;13.20;99.90;;;;;;5141641;27;20201;-78
2023/09/14 07:17:28;;;;;;;3.50;2.08;;;13.30;99.90;;;;;;5139556;27;20051;-80
2023/09/14 07:19:54;;;;;;;4.07;1.95;;;13.50;99.90;;;;;;5126274;27;20043;-79
2023/09/14 07:22:20;;;;;;;2.60;1.98;;;13.60;99.90;;;;;;5115217;27;20042;-79
2023/09/14 07:24:47;;;;;;;4.97;2.20;;;13.80;99.90;;;;;;5140416;27;20086;-79
2023/09/14 07:27:16;;;;;;;4.93;1.92;;;14.00;99.90;;;;;;5126969;27;20054;-79
2023/09/14 07:29:42;;;;;;;4.78;2.15;;;14.30;99.90;;;;;;5117560;27;20140;-79
2023/09/14 07:32:09;;;;;;;2.67;1.65;;;15.20;99.90;;;;;;5143787;27;20573;-80
2023/09/14 07:34:34;;;;;;;3.83;1.55;;;17.10;99.90;;;;;;5117767;27;20051;-80
2023/09/14 07:37:01;;;;;;;2.17;1.95;;;18.90;99.90;;;;;;5140874;27;20084;-80
2023/09/14 07:39:27;;;;;;;4.95;1.45;;;20.30;99.90;;;;;;5139531;27;20439;-80
2023/09/14 07:41:56;;;;;;;2.50;1.73;;;21.50;99.90;;;;;;5143719;27;20047;-80
2023/09/14 07:44:23;;;;;;;2.50;1.60;;;22.50;99.90;;;;;;5135727;27;20586;-81
2023/09/14 07:46:48;;;;;;;3.33;1.67;;;23.30;99.90;;;;;;5134028;27;20554;-80
2023/09/14 07:49:14;;;;;;;3.42;1.38;;;23.80;99.90;;;;;;5139110;27;20043;-80
2023/09/14 07:51:40;;;;;;;3.38;1.30;;;24.30;99.90;;;;;;5132578;27;20126;-80
2023/09/14 07:54:05;;;;;;;3.05;1.23;;;24.80;99.00;;;;;;5119404;27;20569;-78
2023/09/14 07:56:31;;;;;;;3.53;1.50;;;25.40;98.30;;;;;;5104084;27;20045;-78
2023/09/14 07:58:57;;;;;;;1.33;0.90;;;26.00;98.00;;;;;;5138186;27;20161;-78
2023/09/14 08:01:23;;;;;;;4.20;1.52;;;26.20;96.70;;;;;;5142773;27;20119;-78
2023/09/14 08:03:49;;;;;;;2.45;1.17;;;26.50;96.10;;;;;;5138211;27;20127;-78
2023/09/14 08:06:18;;;;;;;2.78;1.58;;;26.90;95.80;;;;;;5141845;27;20123;-78
2023/09/14 08:08:45;;;;;;;1.33;1.15;;;27.20;95.30;;;;;;5137054;27;20049;-78
2023/09/14 08:11:11;;;;;;;2.40;1.13;;;27.60;94.70;;;;;;5135747;27;20042;-79
2023/09/14 08:13:37;;;;;;;2.75;1.23;;;27.80;94.00;;;;;;5129732;27;20046;-78
2023/09/14 08:16:04;;;;;;;3.15;1.30;;;27.50;93.20;;;;;;5105871;27;20459;-79
2023/09/14 08:18:30;;;;;;;4.00;1.33;;;27.30;91.20;;;;;;5122774;27;21096;-79
2023/09/14 08:20:57;;;;;;;1.92;1.10;;;27.50;92.70;;;;;;5119358;27;20050;-79
2023/09/14 08:23:22;;;;;;;4.00;1.33;;;27.10;90.10;;;;;;5121891;27;20073;-80
2023/09/14 08:25:48;;;;;;;2.33;1.35;;;27.60;91.50;;;;;;5140557;27;20150;-79
2023/09/14 08:28:16;;;;;;;2.92;1.45;;;28.00;91.30;;;;;;5127047;27;20050;-79
2023/09/14 08:30:42;;;;;;;2.58;1.45;;;28.10;91.00;;;;;;5104979;27;20932;-79
2023/09/14 08:33:08;;;;;;;3.88;1.52;;;28.20;90.90;;;;;;5125082;27;20127;-79
2023/09/14 08:35:35;;;;;;;3.58;1.58;;;28.40;90.00;;;;;;5115971;27;20487;-79
2023/09/14 08:38:05;;;;;;;6.55;1.73;;;28.20;89.90;;;;;;5135855;27;20046;-79
2023/09/14 08:40:31;;;;;;;4.38;1.20;;;28.50;88.30;;;;;;5105701;27;20483;-79
2023/09/14 08:42:59;;;;;;;4.10;1.73;;;28.40;89.10;;;;;;5108283;27;20593;-80
2023/09/14 08:45:32;;;;;;;9.23;1.48;;;28.90;89.00;;;;;;5134087;27;20078;-80
2023/09/14 08:47:59;;;;;;;4.85;1.48;;;29.00;83.40;;;;;;5138252;27;20060;-80
2023/09/14 08:50:44;;;;;;;5.22;2.05;;;29.00;86.20;;;;;;5139292;27;20046;-80
2023/09/14 08:53:13;;;;;;;3.67;1.40;;;29.20;82.80;;;;;;5092154;27;20107;-79
2023/09/14 08:55:38;;;;;;;3.33;2.03;;;29.60;86.40;;;;;;5125542;27;20043;-79
2023/09/14 08:58:05;;;;;;;4.72;1.50;;;29.30;85.40;;;;;;5139849;27;20376;-80
2023/09/14 09:00:32;;;;;;;4.47;1.60;;;29.40;84.30;;;;;;5119287;27;20050;-79
2023/09/14 09:02:58;;;;;;;3.22;1.73;;;29.20;84.50;;;;;;5140307;27;20068;-80
2023/09/14 09:05:25;;;;;;;2.97;1.58;;;29.20;84.70;;;;;;5137676;27;20038;-80
2023/09/14 09:07:51;;;;;;;3.83;1.35;;;29.00;84.30;;;;;;5118960;27;20043;-80
2023/09/14 09:10:22;;;;;;;4.25;1.58;;;28.90;83.50;;;;;;5139034;27;20072;-80
2023/09/14 09:12:54;;;;;;;4.68;2.45;;;29.10;83.00;;;;;;5139755;27;20051;-80
2023/09/14 09:15:22;;;;;;;3.03;1.73;;;28.80;82.50;;;;;;5138790;27;20126;-80
2023/09/14 09:17:51;;;;;;;5.35;1.55;;;28.70;81.80;;;;;;5100045;28;20611;-80
2023/09/14 09:20:24;;;;;;;5.65;1.70;;;28.50;83.10;;;;;;5130664;27;20442;-80
2023/09/14 09:22:59;;;;;;;4.82;1.67;;;28.70;83.00;;;;;;5135910;27;20577;-80
2023/09/14 09:25:26;;;;;;;3.38;1.50;;;28.70;77.10;;;;;;5137596;27;20506;-80
2023/09/14 09:27:59;;;;;;;4.53;1.60;;;28.60;81.90;;;;;;5108423;28;20656;-80
2023/09/14 09:30:32;;;;;;;5.32;2.40;;;28.70;77.60;;;;;;5124431;27;20088;-80
2023/09/14 09:32:58;;;;;;;3.80;1.65;;;28.40;77.20;;;;;;5138619;27;20491;-80
2023/09/14 09:35:26;;;;;;;5.07;1.60;;;28.70;79.70;;;;;;5140328;27;20046;-80
2023/09/14 09:37:53;;;;;;;3.85;1.60;;;28.30;76.50;;;;;;5119994;27;20571;-79
2023/09/14 09:40:23;;;;;;;4.80;1.92;;;28.50;81.30;;;;;;5098259;27;20083;-79
2023/09/14 09:42:49;;;;;;;3.70;2.00;;;28.20;80.50;;;;;;5107737;27;20078;-79
2023/09/14 09:45:18;;;;;;;2.42;1.40;;;28.50;81.10;;;;;;5130713;27;20058;-79
2023/09/14 09:47:44;;;;;;;3.53;1.33;;;28.40;80.20;;;;;;5138231;27;20046;-80
2023/09/14 09:50:14;;;;;;;4.40;1.70;;;28.60;80.20;;;;;;5120892;27;20046;-80
2023/09/14 09:52:42;;;;;;;4.75;1.88;;;28.70;80.20;;;;;;5140521;27;20773;-80
2023/09/14 09:55:22;;;;;;;2.65;1.60;;;28.80;80.00;;;;;;5142246;27;20062;-80
2023/09/14 09:57:51;;;;;;;4.43;1.80;;;28.80;77.10;;;;;;5138616;27;20083;-79
2023/09/14 10:00:19;;;;;;;4.60;1.77;;;28.60;79.50;;;;;;5141606;27;20114;-80
2023/09/14 10:02:46;;;;;;;3.90;1.50;;;28.90;79.20;;;;;;5139167;27;20043;-80
2023/09/14 10:05:12;;;;;;;4.65;1.70;;;28.70;79.10;;;;;;5140223;27;20146;-79
2023/09/14 10:07:41;;;;;;;4.03;1.70;;;28.80;78.80;;;;;;5134308;27;20578;-80
2023/09/14 10:10:11;;;;;;;4.03;1.52;;;28.90;77.20;;;;;;5131411;27;20086;-80
2023/09/14 10:12:41;;;;;;;4.72;1.55;;;28.90;77.30;;;;;;5114726;27;20814;-80
2023/09/14 10:15:08;;;;;;;3.92;1.65;;;29.40;77.60;;;;;;5135239;27;20052;-79
2023/09/14 10:17:35;;;;;;;3.90;1.55;;;29.40;76.90;;;;;;5125962;27;20043;-79
2023/09/14 10:20:06;;;;;;;4.13;2.15;;;29.60;77.30;;;;;;5133348;27;20326;-79
2023/09/14 10:22:32;;;;;;;4.40;1.95;;;29.90;77.80;;;;;;5137893;27;20042;-81
2023/09/14 10:24:58;;;;;;;3.80;2.05;;;28.30;77.10;;;;;;5120315;27;20349;-80
2023/09/14 10:27:28;;;;;;;4.07;1.80;;;27.00;79.10;;;;;;5121273;27;20047;-79
2023/09/14 10:29:58;;;;;;;3.88;2.03;;;25.70;78.50;;;;;;5114795;27;20070;-80
2023/09/14 10:32:25;;;;;;;2.72;1.50;;;25.40;80.40;;;;;;5121452;27;20100;-80
2023/09/14 10:34:51;;;;;;;1.95;1.55;;;26.20;79.60;;;;;;5137186;27;20046;-80
2023/09/14 10:37:20;;;;;;;4.80;1.75;;;27.00;78.00;;;;;;5138758;27;20042;-80
2023/09/14 10:39:46;;;;;;;4.13;1.77;;;27.00;78.00;;;;;;5138177;27;20046;-79
2023/09/14 10:42:12;;;;;;;4.10;1.88;;;27.10;77.40;;;;;;5137066;27;20118;-80
2023/09/14 10:44:37;;;;;;;4.97;2.40;;;26.40;77.90;;;;;;5114513;27;20074;-80
2023/09/14 10:47:05;;;;;;;4.13;1.88;;;25.80;79.40;;;;;;5116741;27;20051;-80
2023/09/14 10:49:35;;;;;;;3.35;2.22;;;25.10;80.50;;;;;;5114749;27;20047;-79
2023/09/14 10:52:02;;;;;;;5.18;1.77;;;24.40;81.10;;;;;;5120722;27;20158;-80
2023/09/14 10:54:31;;;;;;;4.05;2.13;;;23.80;82.10;;;;;;5116812;27;20146;-82
2023/09/14 10:56:58;;;;;;;8.50;2.42;;;23.70;82.60;;;;;;5112776;27;20069;-80
2023/09/14 10:59:49;;;;;;;4.75;2.80;;;23.60;83.70;;;;;;5115266;27;20039;-80
2023/09/14 11:02:37;;;;;;;5.53;2.13;;;23.30;81.00;;;;;;5112534;27;21247;-80
2023/09/14 11:05:26;;;;;;;4.65;1.85;;;22.90;82.90;;;;;;5116596;27;20050;-80
2023/09/14 11:07:59;;;;;;;4.00;2.05;;;22.80;83.50;;;;;;5102492;27;20043;-80
2023/09/14 11:10:27;;;;;;;5.85;2.55;;;22.50;83.40;;;;;;5112612;27;20035;-79
2023/09/14 11:13:19;;;;;;;5.50;2.10;;;22.40;84.40;;;;;;5118005;27;20051;-80
2023/09/14 11:15:49;;;;;;;4.70;1.70;;;22.20;85.20;;;;;;5117326;27;20047;-80
2023/09/14 11:18:17;;;;;;;3.22;1.83;;;22.10;86.50;;;;;;5108245;27;20051;-80
2023/09/14 11:20:44;;;;;;;5.20;2.80;;;21.90;86.80;;;;;;5111999;27;20051;-79
2023/09/14 11:23:10;;;;;;;4.95;3.10;;;21.80;88.60;;;;;;5135817;27;20047;-79
2023/09/14 11:25:40;;;;;;;8.43;2.80;;;21.70;88.70;;;;;;5115192;27;20096;-80
2023/09/14 11:28:20;;;;;;;4.13;2.00;;;21.70;87.90;;;;;;5116095;27;20062;-79
2023/09/14 11:30:49;;;;;;;3.55;1.83;;;21.70;86.20;;;;;;5116173;27;21085;-79
2023/09/14 11:33:16;;;;;;;3.28;2.13;;;21.60;87.00;;;;;;5121140;27;20164;-80
2023/09/14 11:35:50;;;;;;;6.40;2.70;;;21.50;89.10;;;;;;5114130;27;20396;-79
2023/09/14 11:38:19;;;;;;;4.03;1.90;;;21.50;89.10;;;;;;5118315;27;20103;-80
2023/09/14 11:40:45;;;;;;;4.70;1.92;;;21.40;90.10;;;;;;5107721;27;20453;-79
2023/09/14 11:43:38;;;;;;;4.20;2.67;;;21.40;90.00;;;;;;5102380;27;20063;-80
2023/09/14 11:46:01;;;;;;;3.65;2.17;;;21.40;89.60;;;;;;5116549;27;21393;-79
2023/09/14 11:48:34;;;;;;;4.18;2.10;;;21.50;89.20;;;;;;5100929;27;20055;-78
2023/09/14 11:51:04;;;;;;;6.22;2.30;;;21.50;89.20;;;;;;5111052;27;20039;-78
2023/09/14 11:53:35;;;;;;;4.75;2.13;;;21.40;90.50;;;;;;5119971;27;20043;-79
2023/09/14 11:56:01;;;;;;;6.43;2.30;;;21.30;89.80;;;;;;5118275;27;20614;-80
2023/09/14 11:58:27;;;;;;;3.00;1.90;;;21.20;90.00;;;;;;5117924;27;20047;-79
2023/09/14 12:00:56;;;;;;;4.28;2.10;;;21.10;90.30;;;;;;5119229;27;20047;-79
2023/09/14 12:03:22;;;;;;;4.20;2.30;;;21.20;90.50;;;;;;5118774;27;20047;-80
2023/09/14 12:05:48;;;;;;;7.10;2.30;;;21.20;90.30;;;;;;5119407;27;20083;-80
2023/09/14 12:08:16;;;;;;;11.20;2.60;;;21.20;90.30;;;;;;5106578;27;20135;-79
2023/09/14 12:10:43;;;;;;;3.38;2.60;;;21.30;90.20;;;;;;5098414;27;20054;-81
2023/09/14 12:13:14;;;;;;;7.90;3.00;;;21.30;89.80;;;;;;5119791;27;20039;-80
2023/09/14 12:15:42;;;;;;;5.15;2.33;;;21.20;90.40;;;;;;5088211;27;20043;-80
2023/09/14 12:18:10;;;;;;;3.90;2.22;;;21.20;90.40;;;;;;5117038;27;20166;-80
2023/09/14 12:20:41;;;;;;;4.78;2.60;;;21.10;90.80;;;;;;5115322;27;20122;-79
2023/09/14 12:23:09;;;;;;;4.10;2.47;;;21.00;90.70;;;;;;5120854;27;20063;-80
2023/09/14 12:25:41;;;;;;;6.20;2.53;;;21.00;91.30;;;;;;5116762;27;20046;-80
2023/09/14 12:28:10;;;;;;;6.82;2.13;;;21.10;91.70;;;;;;5106227;27;20082;-80
2023/09/14 12:30:37;;;;;;;4.03;2.20;;;21.30;91.70;;;;;;5116870;27;20134;-79
2023/09/14 12:33:05;;;;;;;4.07;2.70;;;21.40;90.80;;;;;;5115804;27;20055;-79
2023/09/14 12:35:31;;;;;;;6.10;2.70;;;21.60;90.10;;;;;;5120181;27;20050;-79
2023/09/14 12:38:04;;;;;;;3.58;2.65;;;21.80;89.90;;;;;;5119238;27;20329;-79
2023/09/14 12:40:38;;;;;;;6.05;2.35;;;21.90;90.00;;;;;;5118330;27;20120;-79
2023/09/14 12:43:05;;;;;;;5.47;2.10;;;21.80;89.60;;;;;;5117279;27;20066;-80
2023/09/14 12:45:34;;;;;;;4.63;2.28;;;21.90;89.70;;;;;;5137432;27;20043;-79
2023/09/14 12:48:04;;;;;;;5.57;2.40;;;21.80;89.30;;;;;;5139622;27;20058;-79
2023/09/14 12:50:35;;;;;;;3.80;2.03;;;21.60;88.70;;;;;;5141443;27;20509;-79